Time;durP1;ratioP1;P1;durP2;ratioP2;P2;SDS_P1;SDS_P2;PMS_P1;PMS_P2;Temp;Humidity;BMP_temperature;BMP_pressure;BME280_temperature;BME280_humidity;BME280_pressure;Samples;Min_cycle;Max_cycle;Signal;HPM_P1;HPM_P2
2021/05/02 00:02:10;;;;;;;9.20;5.00;;;11.60;70.60;;;;;;5052456;28;20449;-72
2021/05/02 00:04:36;;;;;;;7.90;5.03;;;11.50;70.20;;;;;;5072369;28;20223;-72
2021/05/02 00:07:03;;;;;;;7.10;5.13;;;11.50;70.80;;;;;;5061206;28;20266;-72
2021/05/02 00:09:32;;;;;;;7.00;5.00;;;11.50;70.70;;;;;;5050587;28;20462;-71
2021/05/02 00:11:58;;;;;;;4.97;4.47;;;11.50;70.70;;;;;;5086509;28;20446;-72
2021/05/02 00:14:25;;;;;;;6.10;4.90;;;11.50;71.00;;;;;;5022434;28;20495;-71
2021/05/02 00:16:52;;;;;;;7.67;4.90;;;11.50;71.10;;;;;;5035031;28;20797;-73
2021/05/02 00:19:19;;;;;;;6.27;4.77;;;11.50;71.10;;;;;;5068458;28;20458;-72
2021/05/02 00:21:50;;;;;;;6.73;5.70;;;11.50;71.10;;;;;;5055149;28;20449;-72
2021/05/02 00:24:18;;;;;;;5.80;5.20;;;11.40;70.70;;;;;;5085719;28;20975;-72
2021/05/02 00:26:44;;;;;;;6.00;4.47;;;11.40;71.30;;;;;;5050277;28;20470;-72
2021/05/02 00:29:14;;;;;;;5.90;4.97;;;11.40;71.20;;;;;;5043407;28;20473;-72
2021/05/02 00:31:40;;;;;;;6.70;4.90;;;11.40;71.40;;;;;;5045890;28;20476;-72
2021/05/02 00:34:06;;;;;;;5.90;5.37;;;11.40;71.30;;;;;;5052160;28;20507;-72
2021/05/02 00:36:33;;;;;;;7.33;5.87;;;11.30;71.30;;;;;;5056399;28;20466;-72
2021/05/02 00:38:59;;;;;;;6.57;4.83;;;11.30;71.50;;;;;;5032543;28;20227;-72
2021/05/02 00:41:29;;;;;;;7.60;5.97;;;11.30;71.70;;;;;;5043109;28;20557;-73
2021/05/02 00:44:07;;;;;;;5.40;4.73;;;11.30;72.00;;;;;;5052064;28;20461;-73
2021/05/02 00:46:43;;;;;;;5.77;4.80;;;11.30;72.10;;;;;;5087522;28;20449;-72
2021/05/02 00:49:15;;;;;;;8.10;5.90;;;11.30;72.10;;;;;;5037268;28;20829;-71
2021/05/02 00:51:46;;;;;;;9.80;5.10;;;11.30;72.10;;;;;;5051335;28;20542;-71
2021/05/02 00:54:16;;;;;;;6.73;6.00;;;11.30;72.40;;;;;;5068797;28;20530;-71
2021/05/02 00:57:10;;;;;;;12.80;6.07;;;11.30;72.50;;;;;;5052225;28;20460;-72
2021/05/02 01:00:07;;;;;;;6.87;5.10;;;11.30;72.90;;;;;;5014931;28;20445;-72
2021/05/02 01:02:35;;;;;;;7.43;6.13;;;11.30;73.10;;;;;;5038376;28;20941;-71
2021/05/02 01:05:07;;;;;;;7.10;5.77;;;11.20;72.90;;;;;;5084660;28;20453;-73
2021/05/02 01:07:39;;;;;;;6.97;5.50;;;11.20;73.00;;;;;;5052293;28;20458;-72
2021/05/02 01:10:17;;;;;;;7.17;5.87;;;11.20;73.30;;;;;;5069496;28;20505;-71
2021/05/02 01:12:49;;;;;;;6.83;5.80;;;11.20;73.30;;;;;;5052094;28;20449;-72
2021/05/02 01:15:23;;;;;;;9.10;6.37;;;11.30;73.40;;;;;;5014612;28;20458;-72
2021/05/02 01:18:09;;;;;;;6.93;5.40;;;11.20;73.40;;;;;;5064623;28;20457;-71
2021/05/02 01:20:42;;;;;;;8.13;6.27;;;11.20;73.70;;;;;;5015326;28;20458;-72
2021/05/02 01:23:10;;;;;;;8.37;5.93;;;11.20;73.90;;;;;;5064060;28;20976;-73
2021/05/02 01:25:37;;;;;;;7.20;5.33;;;11.20;73.80;;;;;;5068161;28;20457;-71
2021/05/02 01:28:03;;;;;;;9.13;6.30;;;11.20;73.90;;;;;;5034782;28;20560;-72
2021/05/02 01:30:30;;;;;;;8.60;5.87;;;11.20;73.90;;;;;;5021302;28;20495;-72
2021/05/02 01:32:56;;;;;;;5.47;4.97;;;11.20;73.90;;;;;;5035333;28;20454;-72
2021/05/02 01:35:22;;;;;;;7.97;6.20;;;11.20;73.90;;;;;;5051465;28;20457;-71
2021/05/02 01:37:50;;;;;;;5.47;4.90;;;11.20;74.10;;;;;;5081574;28;20641;-71
2021/05/02 01:40:17;;;;;;;7.50;5.50;;;11.20;74.20;;;;;;5049178;28;20873;-72
2021/05/02 01:43:09;;;;;;;7.57;6.03;;;11.20;74.20;;;;;;5051361;28;20473;-72
2021/05/02 01:45:35;;;;;;;7.00;5.80;;;11.20;74.50;;;;;;5068642;28;20441;-73
2021/05/02 01:48:08;;;;;;;8.27;6.37;;;11.10;74.40;;;;;;5051441;28;20460;-73
2021/05/02 01:51:00;;;;;;;7.20;5.83;;;11.20;74.70;;;;;;5051594;28;20268;-72
2021/05/02 01:53:26;;;;;;;6.93;5.73;;;11.20;74.60;;;;;;5081338;28;20473;-73
2021/05/02 01:55:54;;;;;;;7.50;5.50;;;11.10;74.50;;;;;;5051949;28;20453;-72
2021/05/02 01:58:21;;;;;;;7.50;5.70;;;11.10;74.80;;;;;;5066878;28;20448;-72
2021/05/02 02:00:53;;;;;;;8.57;5.80;;;11.00;75.00;;;;;;5068260;28;20460;-71
2021/05/02 02:03:19;;;;;;;8.10;5.83;;;11.00;75.10;;;;;;5051218;28;20449;-71
2021/05/02 02:05:46;;;;;;;8.17;6.30;;;11.10;75.20;;;;;;5035393;28;20877;-72
2021/05/02 02:08:12;;;;;;;7.57;5.50;;;11.00;75.30;;;;;;5018581;28;20468;-72
2021/05/02 02:10:38;;;;;;;7.53;5.93;;;11.00;75.70;;;;;;5050177;28;20442;-72
2021/05/02 02:13:04;;;;;;;7.63;6.10;;;11.00;75.90;;;;;;5034348;28;20223;-72
2021/05/02 02:15:31;;;;;;;7.47;6.00;;;10.90;76.10;;;;;;5034471;28;20442;-72
2021/05/02 02:17:57;;;;;;;6.13;5.57;;;10.90;76.10;;;;;;5075629;28;20255;-71
2021/05/02 02:20:24;;;;;;;9.47;5.80;;;10.80;76.30;;;;;;5082258;28;20441;-72
2021/05/02 02:22:55;;;;;;;8.17;5.97;;;10.80;76.30;;;;;;5054734;28;20454;-71
2021/05/02 02:25:26;;;;;;;7.70;6.50;;;10.80;76.60;;;;;;5037879;28;20445;-71
2021/05/02 02:27:57;;;;;;;8.87;6.30;;;10.80;76.70;;;;;;5038504;28;20456;-72
2021/05/02 02:30:26;;;;;;;7.07;5.60;;;10.80;77.30;;;;;;5054693;28;20466;-72
2021/05/02 02:32:52;;;;;;;9.40;6.60;;;10.90;76.80;;;;;;5019622;28;20446;-73
2021/05/02 02:35:20;;;;;;;9.20;6.70;;;10.80;76.90;;;;;;5033421;28;20515;-72
2021/05/02 02:37:54;;;;;;;6.80;5.93;;;10.70;78.00;;;;;;5017230;28;20461;-72
2021/05/02 02:40:21;;;;;;;10.47;6.20;;;10.70;77.70;;;;;;5069996;28;20442;-71
2021/05/02 02:42:48;;;;;;;8.47;6.70;;;10.70;77.90;;;;;;5072911;28;20465;-71
2021/05/02 02:45:15;;;;;;;9.57;6.43;;;10.70;77.80;;;;;;5072369;28;20453;-72
2021/05/02 02:47:49;;;;;;;10.47;7.10;;;10.70;77.60;;;;;;5053977;28;21132;-72
2021/05/02 02:54:06;;;;;;;7.93;4.90;;;10.60;78.70;;;;;;5071958;28;20983;-72
2021/05/02 02:56:36;;;;;;;10.00;6.90;;;10.60;78.70;;;;;;5086434;28;20457;-72
2021/05/02 02:59:03;;;;;;;8.07;6.27;;;10.60;79.10;;;;;;5067473;28;20572;-72
2021/05/02 03:01:29;;;;;;;7.70;5.90;;;10.60;79.30;;;;;;5021495;28;20438;-72
2021/05/02 03:03:58;;;;;;;12.50;8.50;;;10.50;80.40;;;;;;5038038;28;20449;-72
2021/05/02 03:06:27;;;;;;;9.27;5.60;;;10.40;79.90;;;;;;5053559;28;20437;-72
2021/05/02 03:08:55;;;;;;;13.57;8.30;;;10.40;80.20;;;;;;5054411;28;21042;-72
2021/05/02 03:11:22;;;;;;;11.17;9.33;;;10.40;81.60;;;;;;5053063;28;20446;-71
2021/05/02 03:13:48;;;;;;;10.97;6.87;;;10.40;80.60;;;;;;5051361;28;20441;-72
2021/05/02 03:16:22;;;;;;;8.80;7.13;;;10.40;81.00;;;;;;5053386;28;20454;-72
2021/05/02 03:19:10;;;;;;;11.50;7.93;;;10.30;80.90;;;;;;5069142;28;20222;-72
2021/05/02 03:22:03;;;;;;;11.73;8.77;;;10.30;81.20;;;;;;5090068;28;20506;-72
2021/05/02 03:24:33;;;;;;;12.43;7.93;;;10.30;81.30;;;;;;5086969;28;20453;-71
2021/05/02 03:27:07;;;;;;;11.10;8.03;;;10.30;81.20;;;;;;5037377;28;20507;-72
2021/05/02 03:29:38;;;;;;;11.10;8.67;;;10.30;81.40;;;;;;5037013;28;20493;-71
2021/05/02 03:32:09;;;;;;;12.00;9.03;;;10.30;81.60;;;;;;5036165;28;20453;-72
2021/05/02 03:34:42;;;;;;;11.07;8.27;;;10.30;81.50;;;;;;5053907;28;20454;-70
2021/05/02 03:37:14;;;;;;;11.20;7.67;;;10.30;81.60;;;;;;5037989;28;21042;-72
2021/05/02 03:39:41;;;;;;;11.50;7.87;;;10.30;81.60;;;;;;5053714;28;20470;-72
2021/05/02 03:42:07;;;;;;;13.33;8.70;;;10.30;81.70;;;;;;5049169;28;20474;-72
2021/05/02 03:44:32;;;;;;;14.13;8.57;;;10.30;81.60;;;;;;5049466;28;20522;-71
2021/05/02 03:46:58;;;;;;;16.57;8.90;;;10.30;82.00;;;;;;5073735;28;20496;-72
2021/05/02 03:49:24;;;;;;;11.80;8.00;;;10.30;82.10;;;;;;5072949;28;20225;-72
2021/05/02 03:51:50;;;;;;;12.27;8.43;;;10.30;81.90;;;;;;5064724;28;20214;-71
2021/05/02 03:54:15;;;;;;;11.70;9.20;;;10.30;82.20;;;;;;5053140;28;20223;-72
2021/05/02 03:56:43;;;;;;;12.30;8.23;;;10.20;82.50;;;;;;5053544;28;20247;-72
2021/05/02 03:59:13;;;;;;;10.63;9.10;;;10.30;82.30;;;;;;5061674;28;20215;-72
2021/05/02 04:02:03;;;;;;;12.50;9.10;;;10.20;82.40;;;;;;5052793;28;20503;-71
2021/05/02 04:04:35;;;;;;;12.00;9.07;;;10.20;82.60;;;;;;5055593;28;21021;-72
2021/05/02 04:07:06;;;;;;;11.57;8.67;;;10.10;83.10;;;;;;5053120;28;20480;-72
2021/05/02 04:09:33;;;;;;;12.13;8.37;;;10.20;82.70;;;;;;5053039;28;20549;-71
2021/05/02 04:11:59;;;;;;;10.67;8.47;;;10.20;82.70;;;;;;5036152;28;20449;-72
2021/05/02 04:14:25;;;;;;;11.37;8.60;;;10.20;82.90;;;;;;5051939;28;21649;-72
2021/05/02 04:16:56;;;;;;;12.57;9.23;;;10.20;82.60;;;;;;5063093;28;20245;-73
2021/05/02 04:19:22;;;;;;;11.63;8.90;;;10.20;82.80;;;;;;5069636;28;20211;-73
2021/05/02 04:21:48;;;;;;;11.80;7.60;;;10.20;83.10;;;;;;5032481;28;20489;-73
2021/05/02 04:24:14;;;;;;;11.80;8.50;;;10.20;83.40;;;;;;5050822;28;20481;-73
2021/05/02 04:26:47;;;;;;;13.50;8.80;;;10.10;83.50;;;;;;5032923;28;20703;-72
2021/05/02 04:29:13;;;;;;;13.10;8.30;;;10.00;83.90;;;;;;5035576;28;20314;-73
2021/05/02 04:31:39;;;;;;;11.60;8.80;;;10.10;83.60;;;;;;5036209;28;20480;-72
2021/05/02 04:34:05;;;;;;;11.47;7.70;;;10.00;83.70;;;;;;5051950;28;20222;-71
2021/05/02 04:36:31;;;;;;;10.97;8.10;;;10.00;83.80;;;;;;5064448;28;20210;-72
2021/05/02 04:38:57;;;;;;;14.77;8.80;;;10.00;84.00;;;;;;5061156;28;20536;-72
2021/05/02 04:41:23;;;;;;;14.47;9.57;;;9.90;86.10;;;;;;5040596;28;20447;-72
2021/05/02 04:43:49;;;;;;;9.10;7.80;;;9.90;86.30;;;;;;5011376;28;20450;-72
2021/05/02 04:46:15;;;;;;;11.80;8.63;;;9.90;86.10;;;;;;5020359;28;20458;-72
2021/05/02 04:48:42;;;;;;;13.53;8.63;;;9.80;87.40;;;;;;5067127;28;20215;-72
2021/05/02 04:51:09;;;;;;;12.67;8.90;;;9.80;87.10;;;;;;5086226;28;20279;-73
2021/05/02 04:53:35;;;;;;;13.17;8.80;;;9.80;87.50;;;;;;5064201;28;20455;-72
2021/05/02 04:56:01;;;;;;;12.23;7.80;;;9.70;87.50;;;;;;5072264;28;20449;-74
2021/05/02 04:58:26;;;;;;;13.73;8.60;;;9.70;87.90;;;;;;5055713;28;20697;-72
2021/05/02 05:00:52;;;;;;;13.43;8.80;;;9.70;87.80;;;;;;5045890;28;20466;-72
2021/05/02 05:03:18;;;;;;;11.50;8.93;;;9.70;87.80;;;;;;5059103;28;20215;-72
2021/05/02 05:05:44;;;;;;;12.30;7.77;;;9.70;88.60;;;;;;5036161;28;20218;-71
2021/05/02 05:08:09;;;;;;;14.73;9.10;;;9.70;88.50;;;;;;5035504;28;20602;-72
2021/05/02 05:10:35;;;;;;;14.60;10.33;;;9.70;88.60;;;;;;5035451;28;20219;-72
2021/05/02 05:13:02;;;;;;;15.27;9.30;;;9.70;89.10;;;;;;5035334;28;20226;-73
2021/05/02 05:15:27;;;;;;;13.30;9.47;;;9.70;88.80;;;;;;5056050;28;20441;-73
2021/05/02 05:17:53;;;;;;;12.83;7.80;;;9.70;88.70;;;;;;5054944;28;20450;-73
2021/05/02 05:20:19;;;;;;;12.43;8.60;;;9.80;88.80;;;;;;5059733;28;20260;-73
2021/05/02 05:22:45;;;;;;;15.77;10.30;;;9.70;88.90;;;;;;5035713;28;20231;-73
2021/05/02 05:25:11;;;;;;;15.50;9.27;;;9.70;89.30;;;;;;5002648;28;20284;-72
2021/05/02 05:27:37;;;;;;;16.03;9.30;;;9.70;90.00;;;;;;5052202;28;20239;-73
2021/05/02 05:30:04;;;;;;;15.27;10.80;;;9.70;90.00;;;;;;5034736;28;20504;-70
2021/05/02 05:32:30;;;;;;;11.03;7.00;;;9.70;90.00;;;;;;5069461;28;20211;-71
2021/05/02 05:34:55;;;;;;;12.73;8.20;;;9.70;90.00;;;;;;5051725;28;20834;-72
2021/05/02 05:37:21;;;;;;;12.87;8.80;;;9.70;89.90;;;;;;5089843;28;20246;-72
2021/05/02 05:39:48;;;;;;;14.40;9.67;;;9.70;90.30;;;;;;5071799;28;20301;-72
2021/05/02 05:42:13;;;;;;;13.23;8.50;;;9.60;90.30;;;;;;5055053;28;20252;-73
2021/05/02 05:44:39;;;;;;;14.20;9.37;;;9.70;90.40;;;;;;5072002;28;20456;-72
2021/05/02 05:47:05;;;;;;;15.80;9.60;;;9.70;90.50;;;;;;5064024;28;20246;-72
2021/05/02 05:49:31;;;;;;;15.10;9.40;;;9.70;90.30;;;;;;5067766;28;20223;-72
2021/05/02 05:51:57;;;;;;;17.40;10.47;;;9.70;90.50;;;;;;5033217;28;20219;-72
2021/05/02 05:54:23;;;;;;;17.47;10.53;;;9.70;90.70;;;;;;5038700;28;20262;-72
2021/05/02 05:56:49;;;;;;;13.40;8.10;;;9.70;90.50;;;;;;5061854;28;20236;-72
2021/05/02 05:59:15;;;;;;;12.07;9.90;;;9.70;90.60;;;;;;5083565;28;20501;-72
2021/05/02 06:01:42;;;;;;;12.83;8.37;;;9.70;90.50;;;;;;5058586;28;20445;-71
2021/05/02 06:04:08;;;;;;;12.20;8.53;;;9.80;90.50;;;;;;5092440;28;20445;-72
2021/05/02 06:06:36;;;;;;;10.07;6.67;;;9.80;90.50;;;;;;5066889;28;20476;-72
2021/05/02 06:09:04;;;;;;;10.67;7.67;;;9.70;90.40;;;;;;5054950;28;20930;-71
2021/05/02 06:11:30;;;;;;;9.73;7.67;;;9.60;90.40;;;;;;5067198;28;20502;-72
2021/05/02 06:13:57;;;;;;;14.43;9.50;;;9.60;90.40;;;;;;5075272;28;20453;-71
2021/05/02 06:16:24;;;;;;;12.13;8.63;;;9.70;90.40;;;;;;5070704;28;20963;-72
2021/05/02 06:18:55;;;;;;;11.30;6.37;;;9.70;90.10;;;;;;5035351;28;20454;-72
2021/05/02 06:21:21;;;;;;;11.13;7.93;;;9.70;90.20;;;;;;5051404;28;20435;-72
2021/05/02 06:23:48;;;;;;;9.60;7.50;;;9.70;90.30;;;;;;5051829;28;20458;-73
2021/05/02 06:26:19;;;;;;;12.80;8.00;;;9.80;90.30;;;;;;5059837;28;20461;-72
2021/05/02 06:28:45;;;;;;;11.00;8.30;;;9.80;90.10;;;;;;5044557;28;20522;-72
2021/05/02 06:31:11;;;;;;;11.67;7.07;;;9.80;89.90;;;;;;5052157;28;20460;-72
2021/05/02 06:33:38;;;;;;;12.60;7.97;;;9.80;90.00;;;;;;5053439;28;20494;-72
2021/05/02 06:36:04;;;;;;;11.07;7.60;;;9.80;90.20;;;;;;5054009;28;20477;-72
2021/05/02 06:38:30;;;;;;;8.30;6.37;;;9.80;90.30;;;;;;5082900;28;20533;-70
2021/05/02 06:40:56;;;;;;;7.40;5.23;;;9.80;90.10;;;;;;5044285;28;21011;-72
2021/05/02 06:43:22;;;;;;;8.50;7.10;;;9.90;90.50;;;;;;5070300;28;20450;-72
2021/05/02 06:45:48;;;;;;;7.03;5.00;;;9.90;90.50;;;;;;5054595;28;20229;-72
2021/05/02 06:48:13;;;;;;;11.20;8.47;;;10.00;90.10;;;;;;5066664;28;20551;-73
2021/05/02 06:50:39;;;;;;;12.40;7.83;;;10.00;90.30;;;;;;5065731;28;20214;-72
2021/05/02 06:53:05;;;;;;;14.30;8.60;;;10.00;90.00;;;;;;5038634;28;20223;-71
2021/05/02 06:55:30;;;;;;;14.70;8.67;;;10.00;90.00;;;;;;5037847;28;20302;-72
2021/05/02 06:57:59;;;;;;;12.97;6.73;;;10.00;89.80;;;;;;5028290;28;20214;-73
2021/05/02 07:00:26;;;;;;;11.60;7.70;;;10.10;89.90;;;;;;5040222;28;20643;-71
2021/05/02 07:02:52;;;;;;;9.13;6.90;;;10.10;89.60;;;;;;5068440;28;20455;-72
2021/05/02 07:05:17;;;;;;;12.20;6.87;;;10.10;89.20;;;;;;5082309;28;20441;-73
2021/05/02 07:07:43;;;;;;;7.30;4.87;;;10.10;89.10;;;;;;5065386;28;20216;-72
2021/05/02 07:10:09;;;;;;;8.00;5.70;;;10.10;88.50;;;;;;5059213;28;20235;-72
2021/05/02 07:12:35;;;;;;;8.57;6.60;;;10.10;88.40;;;;;;5054001;28;20219;-71
2021/05/02 07:15:01;;;;;;;9.33;6.57;;;10.20;88.90;;;;;;5020102;28;20908;-72
2021/05/02 07:17:27;;;;;;;8.47;6.67;;;10.20;88.30;;;;;;5038507;28;20276;-73
2021/05/02 07:19:52;;;;;;;9.40;4.97;;;10.30;88.30;;;;;;5069004;28;20223;-73
2021/05/02 07:22:19;;;;;;;7.80;5.60;;;10.30;88.10;;;;;;5073661;28;20230;-72
2021/05/02 07:24:49;;;;;;;7.67;5.33;;;10.40;88.60;;;;;;5074314;28;20246;-74
2021/05/02 07:27:15;;;;;;;10.43;6.27;;;10.50;88.60;;;;;;5074346;28;20453;-73
2021/05/02 07:29:41;;;;;;;8.97;5.97;;;10.50;87.20;;;;;;5028112;28;21105;-73
2021/05/02 07:32:06;;;;;;;7.10;4.67;;;10.50;87.20;;;;;;5019564;28;20463;-72
2021/05/02 07:34:32;;;;;;;5.67;3.30;;;10.60;87.40;;;;;;5001747;28;20239;-71
2021/05/02 07:36:58;;;;;;;9.60;6.10;;;10.50;86.60;;;;;;5017473;28;20761;-72
2021/05/02 07:39:24;;;;;;;7.10;5.80;;;10.60;87.70;;;;;;5016791;28;20216;-73
2021/05/02 07:41:49;;;;;;;8.00;6.07;;;10.70;86.30;;;;;;5033864;28;20695;-72
2021/05/02 07:44:15;;;;;;;4.60;3.80;;;10.60;85.80;;;;;;5074780;28;20271;-72
2021/05/02 07:46:41;;;;;;;7.17;5.27;;;10.60;85.30;;;;;;5036534;28;20216;-72
2021/05/02 07:49:07;;;;;;;6.20;4.33;;;10.70;87.20;;;;;;5055074;28;20223;-73
2021/05/02 07:51:33;;;;;;;6.13;4.73;;;10.80;87.10;;;;;;5049987;28;20215;-72
2021/05/02 07:54:00;;;;;;;7.00;5.37;;;10.80;84.80;;;;;;5025304;28;20228;-71
2021/05/02 07:56:25;;;;;;;7.70;5.87;;;10.90;85.60;;;;;;5036964;28;20442;-73
2021/05/02 07:58:51;;;;;;;5.90;4.30;;;11.00;85.80;;;;;;5069716;28;20843;-71
2021/05/02 08:01:17;;;;;;;7.30;6.20;;;11.00;87.20;;;;;;5064932;28;20246;-72
2021/05/02 08:03:43;;;;;;;7.80;4.87;;;11.10;86.20;;;;;;5024802;28;20222;-73
2021/05/02 08:06:08;;;;;;;6.67;4.27;;;11.20;86.00;;;;;;5049761;28;20216;-73
2021/05/02 08:08:34;;;;;;;5.10;4.20;;;11.30;85.50;;;;;;5054636;28;20231;-71
2021/05/02 08:11:00;;;;;;;8.90;5.83;;;11.20;84.80;;;;;;5016294;28;20286;-73
2021/05/02 08:13:25;;;;;;;7.93;5.50;;;11.20;84.80;;;;;;5037451;28;20242;-70
2021/05/02 08:15:51;;;;;;;7.63;5.50;;;11.30;85.60;;;;;;5043617;28;20261;-72
2021/05/02 08:18:17;;;;;;;8.77;5.83;;;11.40;85.90;;;;;;5035280;28;20223;-72
2021/05/02 08:20:43;;;;;;;8.23;5.40;;;11.50;84.70;;;;;;5023910;28;20706;-73
2021/05/02 08:23:09;;;;;;;4.87;3.83;;;11.60;85.00;;;;;;5064851;28;20299;-73
2021/05/02 08:25:35;;;;;;;3.50;3.20;;;11.70;86.00;;;;;;5049607;28;20698;-73
2021/05/02 08:28:00;;;;;;;8.43;5.77;;;11.70;83.40;;;;;;5083835;28;20442;-73
2021/05/02 08:30:26;;;;;;;6.07;4.70;;;11.60;84.40;;;;;;5035668;28;20452;-69
2021/05/02 08:32:52;;;;;;;2.40;1.70;;;11.70;84.80;;;;;;5048702;28;20282;-72
2021/05/02 08:35:18;;;;;;;6.27;4.90;;;11.70;83.60;;;;;;5059685;28;20686;-73
2021/05/02 08:37:43;;;;;;;6.30;4.30;;;11.70;84.80;;;;;;5066517;28;20218;-72
2021/05/02 08:40:11;;;;;;;5.97;4.50;;;11.80;82.80;;;;;;5050349;28;20244;-72
2021/05/02 08:42:37;;;;;;;6.87;4.53;;;11.80;83.20;;;;;;5019661;28;20233;-71
2021/05/02 08:45:04;;;;;;;4.50;3.67;;;11.70;81.10;;;;;;5059315;28;20973;-72
2021/05/02 08:47:35;;;;;;;4.20;3.80;;;11.70;81.00;;;;;;5090814;28;20583;-73
2021/05/02 08:50:11;;;;;;;7.70;4.10;;;11.80;80.80;;;;;;5053281;28;20492;-73
2021/05/02 08:52:38;;;;;;;5.70;4.00;;;11.90;82.50;;;;;;5077211;28;20524;-70
2021/05/02 08:55:07;;;;;;;6.43;4.10;;;12.10;81.20;;;;;;5053680;28;20458;-69
2021/05/02 08:57:34;;;;;;;5.53;4.50;;;12.10;80.40;;;;;;5067214;28;20484;-72
2021/05/02 09:00:06;;;;;;;6.40;5.20;;;12.10;81.20;;;;;;5054082;28;21352;-70
2021/05/02 09:02:32;;;;;;;6.07;5.07;;;12.20;82.00;;;;;;5050119;28;20477;-71
2021/05/02 09:05:00;;;;;;;3.67;3.27;;;12.10;81.30;;;;;;5076983;28;20464;-71
2021/05/02 09:07:26;;;;;;;5.80;4.60;;;12.10;81.00;;;;;;5069570;28;20671;-71
2021/05/02 09:09:53;;;;;;;7.00;3.80;;;12.10;81.70;;;;;;5049474;28;20466;-73
2021/05/02 09:12:21;;;;;;;4.40;3.70;;;12.10;79.60;;;;;;5073843;28;20471;-73
2021/05/02 09:14:49;;;;;;;4.17;3.23;;;12.10;80.50;;;;;;5082413;28;20449;-73
2021/05/02 09:17:27;;;;;;;2.93;2.63;;;12.10;78.50;;;;;;5038237;28;20460;-73
2021/05/02 09:19:56;;;;;;;5.60;3.77;;;12.10;78.10;;;;;;5067654;28;20457;-71
2021/05/02 09:22:22;;;;;;;2.67;2.43;;;12.10;76.90;;;;;;5042101;28;20458;-72
2021/05/02 09:24:59;;;;;;;5.80;4.03;;;12.00;76.50;;;;;;5041770;28;20550;-72
2021/05/02 09:27:26;;;;;;;5.10;3.93;;;12.00;77.20;;;;;;5054486;28;20448;-72
2021/05/02 09:29:52;;;;;;;3.87;3.50;;;12.00;77.10;;;;;;5049987;28;20457;-73
2021/05/02 09:32:23;;;;;;;5.40;3.73;;;12.10;78.00;;;;;;5087659;28;20482;-73
2021/05/02 09:34:53;;;;;;;4.70;3.57;;;12.10;77.20;;;;;;5039001;28;20469;-72
2021/05/02 09:41:07;;;;;;;4.60;3.27;;;12.20;76.90;;;;;;5092976;28;20468;-74
2021/05/02 09:43:39;;;;;;;5.73;3.27;;;12.30;77.80;;;;;;5046677;28;20444;-70
2021/05/02 09:49:19;;;;;;;179.73;83.73;;;12.30;75.90;;;;;;5065198;28;20468;-73
2021/05/02 09:51:52;;;;;;;392.70;216.10;;;12.30;75.90;;;;;;5032717;28;20460;-70
2021/05/02 09:54:27;;;;;;;18.10;11.50;;;12.40;74.30;;;;;;5021335;28;20458;-72
2021/05/02 09:56:54;;;;;;;7.13;5.27;;;12.20;73.90;;;;;;5014090;28;21028;-73
2021/05/02 09:59:27;;;;;;;7.40;5.30;;;12.20;73.00;;;;;;5037202;28;20456;-73
2021/05/02 10:02:11;;;;;;;4.63;3.03;;;12.30;74.90;;;;;;5047301;28;20484;-72
2021/05/02 10:04:50;;;;;;;2.97;2.67;;;12.30;75.50;;;;;;5093319;28;20464;-70
2021/05/02 10:07:18;;;;;;;4.37;3.97;;;12.40;77.30;;;;;;5039671;28;20507;-71
2021/05/02 10:09:44;;;;;;;4.70;2.97;;;12.40;76.70;;;;;;5053968;28;20488;-71
2021/05/02 10:12:12;;;;;;;5.50;3.37;;;12.20;75.70;;;;;;5057452;28;20834;-71
2021/05/02 10:14:42;;;;;;;4.00;3.00;;;12.20;76.60;;;;;;5060905;28;20484;-72
2021/05/02 10:17:09;;;;;;;5.50;4.27;;;12.20;76.30;;;;;;5052899;28;20465;-72
2021/05/02 10:19:35;;;;;;;3.40;3.10;;;12.10;76.50;;;;;;5036225;28;20446;-72
2021/05/02 10:22:01;;;;;;;4.20;3.60;;;12.20;77.40;;;;;;5054601;28;20461;-70
2021/05/02 10:24:27;;;;;;;3.00;2.70;;;12.20;77.50;;;;;;5029445;28;20533;-72
2021/05/02 10:26:54;;;;;;;6.20;4.53;;;12.30;77.20;;;;;;5037676;28;20215;-72
2021/05/02 10:29:28;;;;;;;4.50;4.03;;;12.40;77.30;;;;;;5065639;28;20468;-71
2021/05/02 10:32:06;;;;;;;9.43;7.40;;;12.60;78.30;;;;;;5064472;28;20482;-72
2021/05/02 10:34:31;;;;;;;3.97;3.57;;;12.80;77.50;;;;;;5041436;28;20491;-72
2021/05/02 10:37:33;;;;;;;4.37;3.73;;;12.90;76.60;;;;;;5052586;28;20458;-72
2021/05/02 10:40:08;;;;;;;4.70;3.13;;;12.80;76.10;;;;;;5021501;28;20214;-70
2021/05/02 10:42:50;;;;;;;2.60;2.40;;;13.10;78.00;;;;;;5053000;28;20437;-73
2021/05/02 10:45:44;;;;;;;3.50;3.20;;;13.30;76.60;;;;;;5043185;28;20999;-73
2021/05/02 10:48:13;;;;;;;4.03;2.10;;;13.20;73.90;;;;;;5042797;28;20549;-71
2021/05/02 10:50:44;;;;;;;3.13;2.20;;;13.30;74.80;;;;;;5070667;28;20464;-72
2021/05/02 10:53:14;;;;;;;4.80;1.87;;;13.30;74.50;;;;;;5041771;28;20462;-72
2021/05/02 10:55:56;;;;;;;3.27;2.97;;;13.20;73.10;;;;;;5017577;28;20529;-71
2021/05/02 10:58:24;;;;;;;2.20;2.00;;;13.20;74.50;;;;;;5033507;28;20462;-72
2021/05/02 11:00:57;;;;;;;2.43;1.97;;;13.30;73.20;;;;;;5064098;28;20453;-72
2021/05/02 11:03:35;;;;;;;3.67;2.30;;;13.20;73.60;;;;;;5035316;28;20442;-73
2021/05/02 11:06:02;;;;;;;4.57;2.37;;;13.20;73.50;;;;;;5052839;28;21028;-72
2021/05/02 11:09:01;;;;;;;3.53;2.57;;;13.00;72.20;;;;;;5051945;28;20502;-72
2021/05/02 11:11:30;;;;;;;1.67;1.57;;;12.90;72.00;;;;;;5044649;28;20989;-72
2021/05/02 11:16:40;;;;;;;4.67;2.40;;;13.10;72.10;;;;;;5081988;28;20442;-73
2021/05/02 11:19:24;;;;;;;3.40;2.63;;;13.30;73.40;;;;;;5049132;28;20462;-72
2021/05/02 11:21:56;;;;;;;2.07;1.97;;;13.20;71.50;;;;;;5034171;28;20461;-72
2021/05/02 11:24:40;;;;;;;4.43;3.20;;;13.20;71.80;;;;;;5052926;28;20453;-72
2021/05/02 11:27:36;;;;;;;2.30;2.10;;;13.10;71.50;;;;;;5071565;28;20995;-72
2021/05/02 11:29:58;;;;;;;1.70;1.60;;;13.10;71.70;;;;;;5035951;28;20484;-72
2021/05/02 11:32:26;;;;;;;1.60;1.50;;;13.30;71.50;;;;;;5078813;28;20488;-72
2021/05/02 11:35:00;;;;;;;4.03;1.63;;;13.30;70.50;;;;;;5049370;28;20492;-72
2021/05/02 11:38:06;;;;;;;1.70;1.47;;;13.10;68.50;;;;;;5048108;28;21284;-72
2021/05/02 11:40:31;;;;;;;1.60;1.50;;;13.00;67.70;;;;;;5041009;28;20456;-70
2021/05/02 11:43:09;;;;;;;1.77;1.67;;;13.20;68.60;;;;;;5049204;28;20480;-72
2021/05/02 11:45:53;;;;;;;3.67;1.70;;;13.10;66.30;;;;;;5031932;28;20629;-72
2021/05/02 11:48:36;;;;;;;1.47;1.37;;;13.10;65.40;;;;;;5066107;28;20470;-71
2021/05/02 11:51:07;;;;;;;1.73;1.60;;;13.20;67.40;;;;;;5035304;28;20552;-71
2021/05/02 11:53:38;;;;;;;1.60;1.50;;;13.30;66.80;;;;;;5053260;28;20556;-71
2021/05/02 11:56:17;;;;;;;1.57;1.47;;;13.30;67.30;;;;;;5052190;28;20820;-70
2021/05/02 11:58:43;;;;;;;1.97;1.83;;;13.20;66.60;;;;;;5035401;28;20441;-71
2021/05/02 12:01:20;;;;;;;2.53;1.07;;;13.20;66.70;;;;;;5034739;28;20539;-71
2021/05/02 12:03:46;;;;;;;1.30;1.20;;;13.30;67.00;;;;;;5038433;28;20454;-70
2021/05/02 12:06:33;;;;;;;1.70;1.60;;;13.20;67.40;;;;;;5013901;28;20542;-71
2021/05/02 12:09:00;;;;;;;2.30;1.97;;;13.20;68.00;;;;;;5017672;28;20473;-71
2021/05/02 12:11:26;;;;;;;1.70;1.60;;;13.30;68.30;;;;;;5031948;28;20788;-71
2021/05/02 12:13:55;;;;;;;1.60;1.40;;;13.40;68.10;;;;;;5033191;28;20455;-71
2021/05/02 12:16:23;;;;;;;1.57;1.47;;;13.30;67.50;;;;;;5023287;28;21102;-70
2021/05/02 12:19:02;;;;;;;1.50;1.17;;;13.30;68.50;;;;;;4985360;28;20573;-70
2021/05/02 12:21:41;;;;;;;2.40;1.73;;;13.40;67.80;;;;;;5041559;28;20455;-71
2021/05/02 12:24:10;;;;;;;1.23;1.13;;;13.60;66.90;;;;;;5037706;28;20843;-71
2021/05/02 12:26:42;;;;;;;1.83;1.23;;;13.50;64.10;;;;;;5032337;28;20461;-71
2021/05/02 12:29:11;;;;;;;1.53;1.43;;;13.30;63.60;;;;;;5052295;28;20550;-71
2021/05/02 12:31:37;;;;;;;1.93;1.83;;;13.30;64.60;;;;;;5035136;28;20452;-69
2021/05/02 12:34:08;;;;;;;1.73;1.63;;;13.30;63.30;;;;;;5031009;28;20476;-72
2021/05/02 12:36:34;;;;;;;1.10;1.10;;;13.50;65.30;;;;;;5018743;28;20461;-71
2021/05/02 12:39:08;;;;;;;1.90;1.80;;;13.40;62.80;;;;;;5018523;28;20449;-71
2021/05/02 12:41:36;;;;;;;1.63;1.43;;;13.50;63.40;;;;;;5017543;28;20449;-72
2021/05/02 12:44:17;;;;;;;2.20;1.60;;;13.60;65.90;;;;;;5062423;28;20465;-71
2021/05/02 12:46:57;;;;;;;4.93;2.10;;;14.00;66.70;;;;;;5050541;28;20506;-71
2021/05/02 12:49:28;;;;;;;1.70;1.60;;;13.90;63.60;;;;;;5038163;28;20466;-71
2021/05/02 12:51:57;;;;;;;1.40;1.30;;;14.00;65.50;;;;;;5037741;28;20460;-71
2021/05/02 12:54:34;;;;;;;2.03;1.53;;;14.00;64.80;;;;;;5043029;28;20446;-71
2021/05/02 12:57:11;;;;;;;1.50;1.40;;;13.80;64.90;;;;;;5048056;28;20463;-71
2021/05/02 12:59:58;;;;;;;1.50;1.40;;;13.60;64.50;;;;;;5039707;28;21270;-72
2021/05/02 13:02:31;;;;;;;2.20;2.07;;;13.60;64.90;;;;;;5031765;28;20529;-71
2021/05/02 13:05:00;;;;;;;1.93;1.30;;;13.70;63.40;;;;;;5031151;28;20488;-71
2021/05/02 13:07:36;;;;;;;1.70;1.60;;;13.80;64.20;;;;;;5032961;28;20450;-72
2021/05/02 13:10:27;;;;;;;1.13;1.07;;;13.80;63.70;;;;;;5025945;28;20470;-72
2021/05/02 13:12:59;;;;;;;1.47;1.37;;;13.80;63.50;;;;;;5036279;28;20454;-71